logo tempoitalia

Diretta Meteo Bodrum Milas, Turchialunedì 31 agosto ore 08:50

Mappa
Sereno 30 °C Sereno 24 Ore: T.min 23 T.max 35
Ponente Nord Km/h 16.7 Punto di rugiada: 13 °C Umidità: 35% Visibilità: 10 Km
Il sole sorge alle: 06:39 Il sole tramonta alle: 19:40
31 Agosto 2026 08:50 tempo osservato: Sereno Sereno 30 35 1011 vento: Nord N 16.7
31 Agosto 2026 08:20 tempo osservato: Sereno Sereno 29 37 1011 vento: Nord N 16.7
31 Agosto 2026 07:50 tempo osservato: Sereno Sereno 27 44 1011 vento: Nord N/NE 9.3
31 Agosto 2026 07:20 tempo osservato: Sereno Sereno 26 47 1011 vento: Nord NE 11.1
31 Agosto 2026 06:50 tempo osservato: Sereno Sereno 26 47 1011 vento: Nord N 9.3
31 Agosto 2026 06:20 tempo osservato: Sereno Sereno 25 50 1010 vento: Nord N/NE 18.5
31 Agosto 2026 05:50 tempo osservato: Sereno Sereno 25 50 1010 vento: Nord NE 11.1
31 Agosto 2026 05:20 tempo osservato: Sereno Sereno 25 50 1010 vento: Nord N/NE 7.4
31 Agosto 2026 04:50 tempo osservato: Sereno Sereno 27 47 1011 vento: Nord N 11.1
31 Agosto 2026 04:20 tempo osservato: Sereno Sereno 26 50 1011 vento: Nord N/NE 13
31 Agosto 2026 03:50 tempo osservato: Sereno Sereno 25 53 1011 vento: Nord E/NE 7.4
31 Agosto 2026 03:20 tempo osservato: Sereno Sereno 27 47 1011 vento: Nord E/NE 13
31 Agosto 2026 02:50 tempo osservato: Sereno Sereno 26 50 1011 vento: Nord NE 13
31 Agosto 2026 02:20 tempo osservato: Sereno Sereno 23 64 1011 vento: Nord E 11.1
31 Agosto 2026 01:50 tempo osservato: Sereno Sereno 25 53 1011 vento: Nord E 11.1
31 Agosto 2026 01:20 tempo osservato: Sereno Sereno 27 47 1011 vento: Nord SE 9.3
31 Agosto 2026 00:50 tempo osservato: Sereno Sereno 27 47 1011 vento: Nord SE 9.3
31 Agosto 2026 00:20 tempo osservato: Sereno Sereno 26 54 1011 vento: Nord SE 7.4
30 Agosto 2026 23:50 tempo osservato: Sereno Sereno 27 47 1011 vento: Nord E/SE 11.1
30 Agosto 2026 23:20 tempo osservato: Sereno Sereno 27 50 1011 vento: Nord SE 11.1
30 Agosto 2026 22:50 tempo osservato: Sereno Sereno 29 42 1011 vento: Nord N/NE 9.3
30 Agosto 2026 22:20 tempo osservato: Sereno Sereno 29 42 1011 vento: Nord NE 9.3
30 Agosto 2026 21:50 tempo osservato: Sereno Sereno 30 40 1011 vento: Nord N 16.7
30 Agosto 2026 21:20 tempo osservato: Sereno Sereno 30 42 1010 vento: Nord N 16.7
30 Agosto 2026 20:50 tempo osservato: Sereno Sereno 29 45 1010 vento: Nord N 7.4
30 Agosto 2026 20:20 tempo osservato: Sereno Sereno 31 40 1009 vento: Nord N 11.1
30 Agosto 2026 19:50 tempo osservato: Sereno Sereno 30 45 1009 vento: Nord O/NO 13
30 Agosto 2026 19:20 tempo osservato: Sereno Sereno 31 40 1009 vento: Nord O/NO 22.2
30 Agosto 2026 18:50 tempo osservato: Sereno Sereno 32 40 1009 vento: Nord O/NO 20.3
30 Agosto 2026 18:20 tempo osservato: Sereno Sereno 33 36 1009 vento: Nord NO 18.5
30 Agosto 2026 17:50 tempo osservato: Sereno Sereno 34 32 1009 vento: Nord NO 18.5
30 Agosto 2026 17:20 tempo osservato: Sereno Sereno 34 32 1009 vento: Nord N/NO 18.5
30 Agosto 2026 16:50 tempo osservato: Sereno Sereno 34 34 1009 vento: Nord N/NO 18.5
30 Agosto 2026 16:20 tempo osservato: Sereno Sereno 35 30 1009 vento: Nord N 18.5
30 Agosto 2026 15:50 tempo osservato: Sereno Sereno 34 32 1009 vento: Nord N/NO 18.5
30 Agosto 2026 15:20 tempo osservato: Sereno Sereno 35 30 1009 vento: Nord N/NO 18.5
30 Agosto 2026 14:50 tempo osservato: Sereno Sereno 35 28 1009 vento: Nord N 18.5
30 Agosto 2026 14:20 tempo osservato: Sereno Sereno 35 30 1009 vento: Nord N/NO 16.7
30 Agosto 2026 13:50 tempo osservato: Sereno Sereno 34 30 1009 vento: Nord N/NO 18.5
30 Agosto 2026 13:20 tempo osservato: Sereno Sereno 33 29 1010 vento: Nord N 18.5
30 Agosto 2026 12:50 tempo osservato: Sereno Sereno 34 24 1010 vento: Nord N/NE 25.9
30 Agosto 2026 12:20 tempo osservato: Sereno Sereno 33 27 1010 vento: Nord NE 22.2
30 Agosto 2026 11:50 tempo osservato: Sereno Sereno 33 27 1011 vento: Nord N/NE 18.5
30 Agosto 2026 11:20 tempo osservato: Sereno Sereno 32 31 1011 vento: Nord N 9.3
30 Agosto 2026 10:50 tempo osservato: Sereno Sereno 31 33 1011 vento: Nord N/NE 9.3
30 Agosto 2026 10:20 tempo osservato: Sereno Sereno 30 35 1011 vento: Nord N/NO 13
30 Agosto 2026 09:50 tempo osservato: Sereno Sereno 30 37 1011 vento: Nord N/NE 16.7